Time;durP1;ratioP1;P1;durP2;ratioP2;P2;SDS_P1;SDS_P2;PMS_P1;PMS_P2;Temp;Humidity;BMP_temperature;BMP_pressure;BME280_temperature;BME280_humidity;BME280_pressure;Samples;Min_cycle;Max_cycle;Signal;HPM_P1;HPM_P2
2022/02/26 00:01:30;;;;;;;15.43;10.67;;;3.10;1.00;3.60;101858.00;;;;5011841;28;20485;-76
2022/02/26 00:03:59;;;;;;;13.37;11.20;;;3.00;1.00;3.60;101870.00;;;;5009791;28;21706;-77
2022/02/26 00:06:28;;;;;;;17.67;10.37;;;3.40;1.00;3.70;101863.00;;;;5014199;28;20999;-77
2022/02/26 00:08:57;;;;;;;14.60;10.30;;;3.10;1.00;3.80;101870.00;;;;5026745;28;20453;-76
2022/02/26 00:11:26;;;;;;;17.10;11.63;;;3.30;1.00;3.60;101861.00;;;;5048973;28;20446;-77
2022/02/26 00:13:54;;;;;;;15.73;10.33;;;3.20;1.00;3.60;101869.00;;;;5036113;28;20513;-77
2022/02/26 00:16:22;;;;;;;19.40;11.30;;;3.10;1.00;3.50;101831.00;;;;5031818;28;20449;-77
2022/02/26 00:18:51;;;;;;;21.77;12.10;;;3.10;1.00;3.50;101880.00;;;;5044315;28;20885;-76
2022/02/26 00:21:19;;;;;;;17.33;11.27;;;3.30;1.00;3.40;101860.00;;;;5012036;28;20544;-76
2022/02/26 00:23:47;;;;;;;14.60;10.20;;;3.00;1.00;3.40;101885.00;;;;5031990;28;20477;-77
2022/02/26 00:26:20;;;;;;;15.13;11.50;;;3.00;1.00;3.50;101877.00;;;;5015328;28;20458;-77
2022/02/26 00:28:49;;;;;;;15.73;9.00;;;3.00;1.00;3.70;101880.00;;;;5023830;28;20473;-78
2022/02/26 00:31:18;;;;;;;14.67;10.47;;;3.20;1.00;3.70;101906.00;;;;5030406;28;20445;-77
2022/02/26 00:33:47;;;;;;;17.10;11.50;;;3.30;1.00;3.60;101886.00;;;;5046007;28;20504;-78
2022/02/26 00:36:15;;;;;;;19.73;11.50;;;3.10;1.00;3.60;101882.00;;;;5019047;28;20465;-78
2022/02/26 00:38:45;;;;;;;19.03;11.00;;;3.10;1.00;3.70;101882.00;;;;5026502;28;20477;-77
2022/02/26 00:41:13;;;;;;;17.20;10.80;;;3.20;1.00;3.80;101885.00;;;;5034234;28;20523;-77
2022/02/26 00:43:43;;;;;;;17.23;10.73;;;3.20;1.00;3.90;101924.00;;;;5017673;28;20469;-78
2022/02/26 00:46:12;;;;;;;15.00;11.23;;;3.60;1.00;3.90;101906.00;;;;5010902;28;20519;-80
2022/02/26 00:51:26;;;;;;;16.70;11.50;;;3.80;1.00;3.80;101923.00;;;;5035691;28;21264;-77
2022/02/26 00:53:55;;;;;;;16.33;10.67;;;3.40;1.00;3.90;101933.00;;;;5014220;28;20465;-78
2022/02/26 00:56:23;;;;;;;16.20;10.63;;;3.30;1.00;3.80;101922.00;;;;5028072;28;20453;-78
2022/02/26 00:58:53;;;;;;;14.70;10.43;;;3.80;1.00;4.00;101907.00;;;;5012538;28;20445;-79
2022/02/26 01:01:22;;;;;;;18.33;10.13;;;3.40;1.00;3.90;101921.00;;;;5011470;28;20484;-79
2022/02/26 01:03:53;;;;;;;14.40;11.03;;;3.70;1.00;217.30;158334.00;;;;5027864;28;20485;-78
2022/02/26 01:06:23;;;;;;;15.23;10.47;;;3.70;1.00;3.80;101955.00;;;;5015247;28;20521;-77
2022/02/26 01:08:52;;;;;;;15.83;10.73;;;3.30;1.00;3.80;101911.00;;;;5014693;28;20883;-78
2022/02/26 01:11:20;;;;;;;17.77;10.60;;;3.60;1.00;3.80;101933.00;;;;5034193;28;20466;-78
2022/02/26 01:13:49;;;;;;;14.00;10.70;;;3.30;1.00;3.70;101935.00;;;;5024683;28;20520;-79
2022/02/26 01:16:18;;;;;;;17.53;11.40;;;3.30;1.00;3.70;101925.00;;;;5012409;28;20462;-78
2022/02/26 01:18:47;;;;;;;18.63;11.03;;;3.20;1.00;3.80;101945.00;;;;5009842;28;20456;-78
2022/02/26 01:21:15;;;;;;;14.33;10.40;;;3.20;1.00;3.70;101947.00;;;;5010521;28;20839;-79
2022/02/26 01:23:45;;;;;;;19.70;10.40;;;3.20;1.00;3.70;101911.00;;;;5009464;28;20517;-80
2022/02/26 01:26:13;;;;;;;15.53;10.13;;;3.20;1.00;3.70;101933.00;;;;5028127;28;20461;-79
2022/02/26 01:28:41;;;;;;;16.60;10.70;;;3.40;1.00;3.70;101940.00;;;;5011909;28;20464;-79
2022/02/26 01:31:10;;;;;;;15.47;10.93;;;3.30;1.00;3.70;101940.00;;;;5029612;28;20473;-78
2022/02/26 01:33:40;;;;;;;21.43;11.50;;;3.30;1.00;3.70;101926.00;;;;5014880;28;20495;-76
2022/02/26 01:36:09;;;;;;;16.60;10.27;;;3.30;1.00;3.70;101916.00;;;;5031307;28;20484;-78
2022/02/26 01:38:37;;;;;;;23.13;11.43;;;3.20;1.00;3.70;101938.00;;;;5014879;28;20457;-77
2022/02/26 01:41:07;;;;;;;18.70;11.27;;;3.30;1.00;3.70;101923.00;;;;5012787;28;20457;-78
2022/02/26 01:43:36;;;;;;;14.93;10.10;;;3.30;1.00;3.90;101925.00;;;;5015878;28;20484;-79
2022/02/26 01:46:08;;;;;;;15.70;10.27;;;3.40;1.00;3.90;101936.00;;;;5017126;28;20446;-77
2022/02/26 01:48:36;;;;;;;21.57;10.13;;;3.40;1.00;3.90;101937.00;;;;5020836;28;20455;-79
2022/02/26 01:51:09;;;;;;;13.63;10.30;;;3.40;1.00;3.90;101927.00;;;;5014015;28;20460;-78
2022/02/26 01:53:38;;;;;;;19.57;10.13;;;3.40;1.00;3.90;101925.00;;;;5014739;28;21057;-77
2022/02/26 01:56:09;;;;;;;18.57;10.57;;;3.40;1.00;3.90;101920.00;;;;5014288;28;20480;-77
2022/02/26 01:58:39;;;;;;;18.53;10.83;;;3.40;1.00;3.80;101934.00;;;;5013353;28;20484;-76
2022/02/26 02:01:09;;;;;;;17.10;10.90;;;3.40;1.00;3.90;101956.00;;;;5016949;28;20506;-79
2022/02/26 02:03:38;;;;;;;17.13;10.40;;;3.40;1.00;3.90;101939.00;;;;5030139;28;20500;-81
2022/02/26 02:06:07;;;;;;;16.47;10.50;;;3.40;1.00;3.80;101937.00;;;;5015240;28;20448;-77
2022/02/26 02:08:36;;;;;;;20.37;11.93;;;3.40;1.00;3.80;101957.00;;;;5023568;28;20477;-78
2022/02/26 02:11:05;;;;;;;14.60;9.80;;;3.30;1.00;3.60;101952.00;;;;5008778;28;20563;-77
2022/02/26 02:13:34;;;;;;;18.73;11.00;;;3.20;1.00;3.60;101944.00;;;;5010656;28;20845;-77
2022/02/26 02:16:02;;;;;;;17.60;12.37;;;3.20;1.00;3.70;101944.00;;;;5011496;28;20989;-77
2022/02/26 02:18:32;;;;;;;19.07;11.40;;;3.20;1.00;3.70;101942.00;;;;5010321;28;20469;-78
2022/02/26 02:21:00;;;;;;;16.60;10.67;;;3.20;1.00;3.90;101939.00;;;;5015084;28;20450;-78
2022/02/26 02:23:30;;;;;;;18.80;10.73;;;3.30;1.00;3.80;101910.00;;;;5017088;28;20525;-79
2022/02/26 02:25:58;;;;;;;14.63;10.53;;;3.30;1.00;3.70;101953.00;;;;5034825;28;20469;-78
2022/02/26 02:28:33;;;;;;;15.80;9.40;;;3.30;1.00;3.70;101959.00;;;;5013725;28;20560;-79
2022/02/26 02:31:01;;;;;;;18.30;10.50;;;3.30;1.00;3.70;101970.00;;;;5013236;28;20453;-78
2022/02/26 02:33:30;;;;;;;13.17;10.60;;;3.20;1.00;3.70;101963.00;;;;5011154;28;20497;-80
2022/02/26 02:35:58;;;;;;;19.27;11.60;;;3.20;1.00;3.60;101974.00;;;;5019891;28;20454;-77
2022/02/26 02:38:27;;;;;;;16.67;10.17;;;3.20;1.00;3.60;101975.00;;;;5016160;28;20452;-77
2022/02/26 02:40:57;;;;;;;18.73;10.90;;;3.10;1.00;3.60;101977.00;;;;5017334;28;20456;-78
2022/02/26 02:43:25;;;;;;;17.37;12.03;;;3.10;1.00;3.60;101975.00;;;;5017127;28;20485;-82
2022/02/26 02:45:53;;;;;;;18.60;11.23;;;3.10;1.00;3.50;101986.00;;;;5016784;28;20468;-80
2022/02/26 02:48:22;;;;;;;16.87;9.93;;;3.10;1.00;3.70;101989.00;;;;5017647;28;20441;-81
2022/02/26 02:50:51;;;;;;;15.57;9.13;;;3.10;1.00;3.90;101991.00;;;;5033009;28;20472;-77
2022/02/26 02:53:19;;;;;;;12.63;7.70;;;3.30;1.00;3.90;102000.00;;;;5018503;28;20480;-77
2022/02/26 02:55:49;;;;;;;13.60;8.00;;;3.50;1.00;4.00;101996.00;;;;5017013;28;20528;-76
2022/02/26 02:58:22;;;;;;;18.63;8.10;;;3.50;1.00;4.10;101980.00;;;;5016173;28;20793;-76
2022/02/26 03:00:50;;;;;;;15.97;7.00;;;3.60;1.00;4.20;102007.00;;;;5020211;28;20442;-77
2022/02/26 03:03:19;;;;;;;14.60;8.43;;;3.70;1.00;4.30;101979.00;;;;5020064;28;20517;-82
2022/02/26 03:05:48;;;;;;;15.40;7.60;;;4.20;1.00;4.40;102008.00;;;;5015675;28;20483;-79
2022/02/26 03:08:16;;;;;;;12.47;6.83;;;3.90;1.00;4.50;101994.00;;;;5017239;28;20452;-77
2022/02/26 03:10:45;;;;;;;12.00;7.10;;;4.00;1.00;4.50;102004.00;;;;5019004;28;20509;-78
2022/02/26 03:13:13;;;;;;;16.83;7.20;;;4.10;1.00;4.50;102002.00;;;;5020185;28;20478;-76
2022/02/26 03:15:43;;;;;;;14.10;7.10;;;4.20;1.00;4.60;102006.00;;;;5018694;28;20977;-78
2022/02/26 03:18:12;;;;;;;13.33;6.53;;;4.30;1.00;4.70;101981.00;;;;5034288;28;20467;-76
2022/02/26 03:20:40;;;;;;;15.37;6.43;;;4.30;1.00;4.70;102017.00;;;;5020363;28;20483;-77
2022/02/26 03:23:09;;;;;;;18.60;7.47;;;4.40;1.00;4.60;102004.00;;;;5018008;28;20478;-77
2022/02/26 03:25:37;;;;;;;12.30;6.33;;;4.40;1.00;4.60;102023.00;;;;5019964;28;20998;-78
2022/02/26 03:28:06;;;;;;;14.40;6.20;;;4.30;1.00;4.60;102001.00;;;;5018677;28;20820;-79
2022/02/26 03:30:35;;;;;;;13.87;6.60;;;4.30;1.00;4.50;102021.00;;;;5015519;28;20492;-79
2022/02/26 03:33:06;;;;;;;15.30;6.57;;;4.20;1.00;4.50;102013.00;;;;5019116;28;20477;-80
2022/02/26 03:35:36;;;;;;;16.03;6.10;;;4.20;1.00;4.50;102020.00;;;;5018905;28;20547;-77
2022/02/26 03:38:04;;;;;;;11.53;6.27;;;4.20;1.00;4.40;102020.00;;;;5032822;28;20897;-80
2022/02/26 03:40:34;;;;;;;13.17;6.40;;;4.10;1.00;4.40;102037.00;;;;5019052;28;20450;-79
2022/02/26 03:43:03;;;;;;;17.10;5.97;;;4.20;1.00;4.50;102022.00;;;;5032011;28;21018;-77
2022/02/26 03:45:32;;;;;;;12.53;6.17;;;4.20;1.00;4.50;102022.00;;;;5016710;28;20457;-79
2022/02/26 03:48:01;;;;;;;12.70;6.50;;;4.30;1.00;4.60;102027.00;;;;5019311;28;20452;-77
2022/02/26 03:50:31;;;;;;;11.93;4.93;;;4.30;1.00;4.60;101992.00;;;;5018272;28;20464;-77
2022/02/26 03:52:59;;;;;;;13.93;6.30;;;4.70;1.00;4.50;102032.00;;;;5019213;28;20473;-78
2022/02/26 03:55:27;;;;;;;19.33;5.93;;;4.30;1.00;4.50;102029.00;;;;5036457;28;20464;-79
2022/02/26 03:57:56;;;;;;;16.03;5.27;;;4.60;1.00;4.60;102011.00;;;;5028926;28;20453;-77
2022/02/26 04:00:24;;;;;;;12.17;4.93;;;4.20;1.00;4.50;102044.00;;;;5050434;28;20481;-78
2022/02/26 04:02:52;;;;;;;15.17;5.80;;;4.20;1.00;4.40;67230.00;;;;5027353;28;20542;-79
2022/02/26 04:05:21;;;;;;;13.33;5.50;;;4.10;1.00;4.50;102040.00;;;;5017269;28;20499;-80
2022/02/26 04:07:51;;;;;;;10.10;5.63;;;4.10;1.00;4.40;102058.00;;;;5014948;28;21022;-80
2022/02/26 04:10:19;;;;;;;12.87;5.40;;;4.00;1.00;4.40;102051.00;;;;5016763;28;20457;-81
2022/02/26 04:12:47;;;;;;;10.93;5.90;;;3.90;1.00;4.30;102052.00;;;;5014370;28;20569;-81
2022/02/26 04:15:16;;;;;;;12.20;5.30;;;3.90;1.00;4.10;102060.00;;;;5013016;28;20465;-80
2022/02/26 04:17:47;;;;;;;16.20;5.20;;;3.80;1.00;3.90;102054.00;;;;5015902;28;20465;-76
2022/02/26 04:20:16;;;;;;;10.63;4.77;;;3.60;1.00;3.90;102059.00;;;;5013276;28;20921;-80
2022/02/26 04:22:44;;;;;;;14.53;5.80;;;3.50;1.00;3.80;102056.00;;;;5017007;28;20484;-80
2022/02/26 04:25:14;;;;;;;18.93;5.50;;;3.50;1.00;3.80;102059.00;;;;5015774;28;20469;-80
2022/02/26 04:27:42;;;;;;;13.73;5.27;;;3.40;1.00;3.70;102061.00;;;;5018063;28;20454;-79
2022/02/26 04:30:12;;;;;;;13.13;4.90;;;3.40;1.00;3.70;102054.00;;;;5019443;28;20457;-78
2022/02/26 04:32:42;;;;;;;11.27;5.60;;;3.40;1.00;3.70;102054.00;;;;5019829;28;20511;-78
2022/02/26 04:35:11;;;;;;;13.03;5.70;;;3.30;1.00;3.70;102086.00;;;;5032534;28;20457;-78
2022/02/26 04:37:41;;;;;;;17.47;5.70;;;3.30;1.00;3.60;102072.00;;;;5019499;28;20461;-78
2022/02/26 04:40:15;;;;;;;14.80;5.23;;;3.20;1.00;3.60;102079.00;;;;5021450;28;20471;-81
2022/02/26 04:42:44;;;;;;;13.77;6.10;;;3.20;1.00;3.60;102088.00;;;;5021720;28;20918;-76
2022/02/26 04:45:14;;;;;;;14.80;4.60;;;3.20;1.00;3.70;102065.00;;;;5020675;28;20540;-79
2022/02/26 04:47:45;;;;;;;14.80;5.30;;;3.20;1.00;3.60;102079.00;;;;5016537;28;20820;-77
2022/02/26 04:50:15;;;;;;;15.03;5.20;;;3.20;1.00;3.50;102080.00;;;;5014974;28;20450;-79
2022/02/26 04:52:44;;;;;;;11.27;5.20;;;3.20;1.00;3.50;102074.00;;;;5016309;28;20526;-78
2022/02/26 04:55:14;;;;;;;14.30;4.83;;;3.10;1.00;3.40;102077.00;;;;5016436;28;20946;-79
2022/02/26 04:57:44;;;;;;;15.57;5.43;;;3.00;1.00;3.40;102073.00;;;;5015487;28;20498;-75
2022/02/26 05:00:13;;;;;;;15.77;5.10;;;3.00;1.00;3.30;102081.00;;;;5018837;28;20460;-78
2022/02/26 05:02:42;;;;;;;15.00;4.20;;;2.90;1.00;3.40;102093.00;;;;5016959;28;20478;-77
2022/02/26 05:05:10;;;;;;;17.13;5.50;;;3.00;1.00;3.40;102036.00;;;;5015385;28;20469;-81
2022/02/26 05:07:39;;;;;;;12.50;4.70;;;3.00;1.00;3.40;102085.00;;;;5012330;28;20468;-79
2022/02/26 05:10:09;;;;;;;15.40;5.63;;;3.00;1.00;3.40;102104.00;;;;5011540;28;20454;-79
2022/02/26 05:12:39;;;;;;;20.87;5.73;;;3.00;1.00;3.40;102098.00;;;;5011598;28;20495;-80
2022/02/26 05:15:08;;;;;;;11.70;5.87;;;2.90;1.00;3.40;102103.00;;;;5021217;28;20471;-76
2022/02/26 05:17:39;;;;;;;14.03;5.37;;;2.90;1.00;3.40;102110.00;;;;5043376;28;20459;-76
2022/02/26 05:20:10;;;;;;;17.83;6.97;;;3.00;1.00;3.30;102110.00;;;;5043420;28;20429;-76
2022/02/26 05:22:39;;;;;;;21.90;6.33;;;2.90;1.00;3.30;102099.00;;;;5062101;28;20540;-82
2022/02/26 05:25:10;;;;;;;12.00;5.90;;;3.30;1.00;3.40;102095.00;;;;5055425;28;20468;-84
2022/02/26 05:27:42;;;;;;;21.23;5.03;;;3.00;1.00;3.40;102121.00;;;;5046609;28;20462;-80
2022/02/26 05:30:16;;;;;;;15.33;5.67;;;3.00;1.00;3.40;102121.00;;;;5047804;28;20435;-82
2022/02/26 05:32:45;;;;;;;15.83;6.00;;;3.00;1.00;3.40;102125.00;;;;5056210;28;20476;-76
2022/02/26 05:35:13;;;;;;;16.37;5.60;;;3.00;1.00;3.50;102111.00;;;;5027250;28;20462;-75
2022/02/26 05:37:42;;;;;;;22.47;7.47;;;3.00;1.00;217.30;158112.00;;;;5025795;28;20452;-76
2022/02/26 05:40:12;;;;;;;18.10;6.73;;;3.00;1.00;3.30;102120.00;;;;5019528;28;20540;-80
2022/02/26 05:42:42;;;;;;;11.73;5.50;;;2.90;1.00;3.30;102104.00;;;;5019989;28;20499;-77
2022/02/26 05:45:12;;;;;;;14.50;6.30;;;2.80;1.00;3.10;102115.00;;;;5018241;28;20844;-79
2022/02/26 05:47:40;;;;;;;14.67;5.73;;;2.80;1.00;3.10;102112.00;;;;5023475;28;20520;-83
2022/02/26 05:50:10;;;;;;;17.83;6.47;;;2.70;1.00;3.20;102107.00;;;;5054740;28;20480;-78
2022/02/26 05:52:38;;;;;;;12.77;6.80;;;2.70;1.00;3.20;102126.00;;;;5040151;28;20504;-80
2022/02/26 05:55:07;;;;;;;19.73;6.70;;;2.70;1.00;3.10;102122.00;;;;5043633;28;20453;-76
2022/02/26 05:57:36;;;;;;;15.27;6.43;;;2.70;1.00;3.00;102110.00;;;;5043984;28;20841;-76
2022/02/26 06:00:08;;;;;;;15.83;6.73;;;2.60;1.00;3.00;102137.00;;;;5024561;28;20436;-76
2022/02/26 06:02:36;;;;;;;19.40;6.80;;;2.50;1.00;2.90;102127.00;;;;5025081;28;20511;-77
2022/02/26 06:05:06;;;;;;;14.57;6.57;;;2.40;1.00;2.70;102120.00;;;;5020408;28;20528;-78
2022/02/26 06:07:34;;;;;;;11.40;6.23;;;2.30;1.00;2.70;102136.00;;;;5020537;28;20448;-78
2022/02/26 06:10:04;;;;;;;23.40;7.10;;;2.30;1.00;2.80;102129.00;;;;5019192;28;20519;-79
2022/02/26 06:12:33;;;;;;;15.20;6.83;;;2.30;1.00;2.90;102143.00;;;;5020965;28;20465;-83
2022/02/26 06:15:06;;;;;;;15.23;7.20;;;2.30;1.00;3.00;102141.00;;;;5019198;28;20452;-76
2022/02/26 06:17:36;;;;;;;18.43;6.20;;;2.40;1.00;2.80;102118.00;;;;5020205;28;20794;-78
2022/02/26 06:20:06;;;;;;;21.90;6.73;;;2.30;1.00;2.70;102147.00;;;;5018949;28;20502;-81
2022/02/26 06:22:35;;;;;;;24.50;7.20;;;2.30;1.00;2.70;102149.00;;;;5036311;28;20472;-76
2022/02/26 06:25:04;;;;;;;15.23;7.57;;;2.20;1.00;2.70;102170.00;;;;5019587;28;20480;-77
2022/02/26 06:27:37;;;;;;;15.87;6.47;;;2.20;1.00;2.70;102160.00;;;;5021250;28;20460;-78
2022/02/26 06:30:09;;;;;;;23.63;8.00;;;2.20;1.00;2.70;102166.00;;;;5019064;28;20863;-80
2022/02/26 06:32:39;;;;;;;15.60;7.27;;;2.20;1.00;2.80;102178.00;;;;5033911;28;20485;-76
2022/02/26 06:35:11;;;;;;;20.00;7.70;;;2.20;1.00;2.70;102167.00;;;;5034065;28;20549;-77
2022/02/26 06:37:40;;;;;;;16.77;6.90;;;2.30;1.00;2.70;102171.00;;;;5018770;28;20465;-76
2022/02/26 06:40:09;;;;;;;18.63;7.40;;;2.30;1.00;2.70;102174.00;;;;5019489;28;20530;-78
2022/02/26 06:42:38;;;;;;;25.53;8.33;;;2.30;1.00;2.90;102170.00;;;;5044273;28;20497;-77
2022/02/26 06:45:08;;;;;;;17.63;7.17;;;2.30;1.00;3.10;102175.00;;;;5018452;28;20474;-77
2022/02/26 06:47:37;;;;;;;16.03;7.07;;;2.50;1.00;3.20;102163.00;;;;5026220;28;20441;-77
2022/02/26 06:50:07;;;;;;;18.13;6.77;;;2.50;1.00;3.10;102182.00;;;;5029031;28;20485;-78
2022/02/26 06:52:35;;;;;;;17.33;7.37;;;2.60;1.00;3.20;102179.00;;;;5024138;28;20477;-77
2022/02/26 06:55:04;;;;;;;10.93;6.40;;;2.60;1.00;3.20;102181.00;;;;5026017;28;20477;-78
2022/02/26 06:57:48;;;;;;;19.50;7.13;;;2.70;1.00;3.30;102188.00;;;;5012114;28;21694;-77
2022/02/26 07:00:18;;;;;;;16.90;7.00;;;2.70;1.00;3.40;102177.00;;;;5017362;28;20462;-77
2022/02/26 07:02:48;;;;;;;26.77;8.57;;;2.70;1.00;3.60;102199.00;;;;5031115;28;20485;-77
2022/02/26 07:05:17;;;;;;;21.77;8.63;;;2.90;1.00;3.70;102183.00;;;;5024032;28;20884;-77
2022/02/26 07:07:45;;;;;;;20.23;7.80;;;3.00;1.00;3.70;102180.00;;;;5013332;28;20457;-76
2022/02/26 07:10:14;;;;;;;24.23;8.67;;;3.10;1.00;3.60;102188.00;;;;5028378;28;20547;-79
2022/02/26 07:12:42;;;;;;;14.77;6.93;;;3.10;1.00;3.70;102194.00;;;;5033141;28;20465;-79
2022/02/26 07:15:11;;;;;;;16.13;8.07;;;3.10;1.00;3.90;102173.00;;;;5019307;28;20468;-79
2022/02/26 07:17:40;;;;;;;17.87;7.37;;;3.20;1.00;4.10;102207.00;;;;5019719;28;20473;-82
2022/02/26 07:20:12;;;;;;;18.93;7.50;;;3.40;1.00;4.20;102181.00;;;;5018023;28;20494;-79
2022/02/26 07:22:40;;;;;;;18.73;8.93;;;3.50;1.00;4.30;102197.00;;;;5018306;28;20895;-78
2022/02/26 07:25:12;;;;;;;17.00;8.47;;;3.60;1.00;4.20;102212.00;;;;5016847;28;20492;-80
2022/02/26 07:27:42;;;;;;;17.87;8.47;;;3.60;1.00;4.40;102207.00;;;;5019213;28;20445;-79
2022/02/26 07:30:12;;;;;;;21.93;7.70;;;3.70;1.00;4.30;102218.00;;;;5018842;28;20927;-78
2022/02/26 07:32:43;;;;;;;19.60;7.57;;;3.70;1.00;4.20;102224.00;;;;5035243;28;20576;-78
2022/02/26 07:35:13;;;;;;;22.67;9.23;;;3.70;1.00;4.20;102222.00;;;;5015982;28;20950;-76
2022/02/26 07:37:44;;;;;;;16.67;8.57;;;3.70;1.00;4.30;102236.00;;;;5019319;28;21527;-77
2022/02/26 07:40:14;;;;;;;21.43;9.30;;;4.20;1.00;4.30;102237.00;;;;5017736;28;20457;-77
2022/02/26 07:42:48;;;;;;;21.90;8.90;;;3.80;1.00;4.40;102244.00;;;;5020614;28;20491;-77
2022/02/26 07:45:16;;;;;;;17.20;9.60;;;3.80;1.00;4.30;102245.00;;;;5047490;28;20534;-75
2022/02/26 07:47:47;;;;;;;19.17;10.77;;;4.10;1.00;4.40;102232.00;;;;5039245;28;20524;-76
2022/02/26 07:50:17;;;;;;;25.40;9.87;;;3.90;1.00;4.30;102252.00;;;;5033551;28;20523;-79
2022/02/26 07:52:48;;;;;;;15.00;9.90;;;3.90;1.00;4.30;102250.00;;;;5020993;28;20482;-79
2022/02/26 07:55:17;;;;;;;18.50;10.20;;;3.90;1.00;4.30;102252.00;;;;5019579;28;20467;-78
2022/02/26 07:57:45;;;;;;;17.03;10.70;;;3.90;1.00;4.40;102257.00;;;;5020315;28;20830;-79
2022/02/26 08:00:15;;;;;;;14.50;9.97;;;4.00;1.00;4.50;102260.00;;;;5016880;28;20538;-79
2022/02/26 08:02:44;;;;;;;23.43;12.23;;;4.00;1.00;4.60;102266.00;;;;5015771;28;20469;-80
2022/02/26 08:05:13;;;;;;;20.33;10.40;;;4.20;1.00;4.70;102256.00;;;;5024486;28;20453;-81
2022/02/26 08:07:46;;;;;;;19.03;9.90;;;4.20;1.00;4.60;102256.00;;;;5019065;28;20454;-78
2022/02/26 08:10:15;;;;;;;18.47;11.10;;;4.20;1.00;4.80;102276.00;;;;5016925;28;20462;-78
2022/02/26 08:12:44;;;;;;;16.67;10.07;;;4.60;1.00;52.70;158788.00;;;;5024787;28;20460;-80
2022/02/26 08:15:12;;;;;;;18.70;11.23;;;4.40;1.00;4.80;102272.00;;;;5019993;28;20453;-79
2022/02/26 08:17:44;;;;;;;21.60;10.40;;;4.40;1.00;4.90;102266.00;;;;5019328;28;20530;-77
2022/02/26 08:20:13;;;;;;;20.80;10.37;;;4.40;1.00;5.10;102275.00;;;;5016444;28;20449;-79
2022/02/26 08:22:42;;;;;;;17.90;10.40;;;4.60;1.00;5.20;102264.00;;;;5014241;28;20472;-78
2022/02/26 08:25:13;;;;;;;20.90;10.17;;;5.10;1.00;5.40;102292.00;;;;5031351;28;20477;-79
2022/02/26 08:27:43;;;;;;;14.77;8.53;;;4.90;1.00;5.60;102278.00;;;;5029158;28;20592;-77
2022/02/26 08:30:16;;;;;;;17.33;8.90;;;5.10;1.00;5.80;102280.00;;;;5032322;28;20461;-77
2022/02/26 08:32:44;;;;;;;25.43;8.80;;;5.30;1.00;5.80;102258.00;;;;5018251;28;20561;-78
2022/02/26 08:35:14;;;;;;;22.63;8.20;;;5.40;1.00;6.00;102295.00;;;;5012637;28;20556;-82
2022/02/26 08:37:46;;;;;;;14.57;7.97;;;5.50;1.00;6.20;102289.00;;;;5016151;28;20464;-79
2022/02/26 08:40:17;;;;;;;17.87;9.03;;;5.60;1.00;6.30;102295.00;;;;5015438;28;20464;-76
2022/02/26 08:42:46;;;;;;;15.23;9.00;;;5.70;1.00;6.30;102299.00;;;;5017480;28;20481;-81
2022/02/26 08:45:14;;;;;;;20.30;8.73;;;5.80;1.00;6.20;102291.00;;;;5015803;28;20481;-82
2022/02/26 08:47:43;;;;;;;23.13;9.83;;;5.80;1.00;6.30;102299.00;;;;5016944;28;20564;-84
2022/02/26 08:50:16;;;;;;;17.53;9.60;;;6.30;1.00;6.30;102291.00;;;;5016376;28;20452;-78
2022/02/26 08:52:44;;;;;;;17.33;8.50;;;5.90;1.00;6.30;102288.00;;;;5015854;28;20838;-79
2022/02/26 08:55:15;;;;;;;18.30;7.20;;;5.90;1.00;6.30;102259.00;;;;5017072;28;20456;-82
2022/02/26 08:57:43;;;;;;;15.90;8.70;;;5.90;1.00;6.50;102295.00;;;;5017824;28;20472;-77
2022/02/26 09:00:13;;;;;;;14.80;7.10;;;6.30;1.00;6.60;102280.00;;;;5015389;28;20916;-79
2022/02/26 09:02:43;;;;;;;23.53;7.37;;;6.10;1.00;6.70;102313.00;;;;5019118;28;20483;-79
2022/02/26 09:05:12;;;;;;;15.30;6.43;;;6.20;1.00;6.70;102320.00;;;;5019167;28;20456;-80
2022/02/26 09:07:41;;;;;;;11.47;5.60;;;6.30;1.00;6.70;102311.00;;;;5040594;28;20990;-78
2022/02/26 09:10:12;;;;;;;15.43;6.37;;;6.30;1.00;6.80;102323.00;;;;5022777;28;20529;-79
2022/02/26 09:12:43;;;;;;;17.17;6.97;;;6.30;1.00;6.80;102316.00;;;;5020234;28;20572;-81
2022/02/26 09:15:12;;;;;;;13.17;5.93;;;6.40;1.00;6.70;102306.00;;;;5020394;28;20508;-80
2022/02/26 09:17:41;;;;;;;17.20;5.90;;;6.40;1.00;6.80;102319.00;;;;5037119;28;21030;-83
2022/02/26 09:20:12;;;;;;;15.57;5.67;;;6.40;1.00;6.80;102322.00;;;;5015488;28;20457;-79
2022/02/26 09:22:41;;;;;;;13.87;6.17;;;6.50;1.00;7.10;102313.00;;;;5017117;28;20567;-77
2022/02/26 09:25:11;;;;;;;16.50;5.60;;;7.10;1.00;7.30;102325.00;;;;5018736;28;20476;-79
2022/02/26 09:27:40;;;;;;;19.30;6.73;;;7.00;1.00;7.60;102325.00;;;;5021939;28;20536;-80
2022/02/26 09:30:11;;;;;;;16.77;6.80;;;7.50;1.00;7.80;102323.00;;;;5020617;28;20452;-80
2022/02/26 09:32:42;;;;;;;17.17;5.50;;;7.60;1.00;7.90;102328.00;;;;5019311;28;20473;-79
2022/02/26 09:35:11;;;;;;;14.23;5.03;;;7.70;1.00;8.00;102320.00;;;;5023547;28;20499;-79
2022/02/26 09:37:39;;;;;;;16.90;5.80;;;7.90;1.00;8.20;102332.00;;;;5036433;28;21729;-80
2022/02/26 09:40:09;;;;;;;13.67;5.00;;;8.00;1.00;8.40;102322.00;;;;5022411;28;20456;-78
2022/02/26 09:42:37;;;;;;;14.27;4.67;;;8.20;1.00;8.60;102332.00;;;;5023806;28;21073;-80
2022/02/26 09:45:07;;;;;;;16.70;5.03;;;8.50;1.00;8.80;102342.00;;;;5021627;28;20569;-79
2022/02/26 09:47:38;;;;;;;13.10;5.30;;;8.70;1.00;9.10;102362.00;;;;5024268;28;20572;-78
2022/02/26 09:50:08;;;;;;;10.43;4.60;;;8.90;1.00;9.10;102311.00;;;;5024614;28;20453;-78
2022/02/26 09:52:42;;;;;;;16.13;4.90;;;9.00;1.00;9.20;102344.00;;;;5030365;28;20477;-77
2022/02/26 09:55:11;;;;;;;12.07;4.03;;;9.10;1.00;9.00;102349.00;;;;5029636;28;20491;-79
2022/02/26 09:57:40;;;;;;;17.77;5.27;;;9.00;1.00;9.00;102352.00;;;;5030015;28;20507;-76
2022/02/26 10:00:10;;;;;;;17.93;4.83;;;9.00;1.00;9.20;102363.00;;;;5022928;28;20462;-80
2022/02/26 10:02:42;;;;;;;12.20;4.67;;;9.20;1.00;9.40;102364.00;;;;5024729;28;20472;-79
2022/02/26 10:05:12;;;;;;;24.90;5.50;;;9.40;1.00;9.70;102355.00;;;;5041973;28;21021;-79
2022/02/26 10:07:41;;;;;;;11.60;4.53;;;9.60;1.00;9.90;102344.00;;;;5022635;28;20847;-79
2022/02/26 10:10:16;;;;;;;14.20;4.37;;;9.90;1.00;10.30;102335.00;;;;5022870;28;20503;-78
2022/02/26 10:12:45;;;;;;;12.23;4.17;;;10.30;1.00;10.30;102366.00;;;;5035573;28;21465;-80
2022/02/26 10:15:27;;;;;;;13.17;4.17;;;10.40;1.00;10.10;102358.00;;;;5020366;28;20456;-77
2022/02/26 10:18:05;;;;;;;15.90;5.20;;;10.20;1.00;10.10;102370.00;;;;5016287;28;20475;-78
2022/02/26 10:20:34;;;;;;;15.17;4.43;;;10.10;1.00;10.10;102372.00;;;;5019536;28;20540;-78
2022/02/26 10:23:03;;;;;;;11.37;3.57;;;10.10;1.00;10.20;102359.00;;;;5015870;28;20481;-79
2022/02/26 10:25:32;;;;;;;13.10;3.93;;;10.20;1.00;10.10;102368.00;;;;5034994;28;20449;-78
2022/02/26 10:28:03;;;;;;;8.77;3.60;;;10.10;1.00;10.20;102385.00;;;;5016587;28;20469;-77
2022/02/26 10:30:36;;;;;;;13.87;4.40;;;10.20;1.00;10.40;102370.00;;;;5019367;28;20480;-77
2022/02/26 10:33:11;;;;;;;10.50;3.97;;;10.30;1.00;10.40;102369.00;;;;5018166;28;20481;-80
2022/02/26 10:35:46;;;;;;;9.73;3.77;;;10.30;1.00;10.30;102369.00;;;;5032231;28;20974;-80
2022/02/26 10:38:19;;;;;;;12.70;4.37;;;10.20;1.00;10.20;102371.00;;;;5033013;28;20457;-76
2022/02/26 10:40:52;;;;;;;10.20;3.20;;;10.20;1.00;9.90;102359.00;;;;5018757;28;20453;-78
2022/02/26 10:43:47;;;;;;;11.80;3.20;;;9.90;1.00;9.90;102354.00;;;;5019773;28;20485;-78
2022/02/26 10:46:26;;;;;;;13.93;3.50;;;9.70;1.00;9.90;102357.00;;;;5017354;28;20537;-77
2022/02/26 10:49:00;;;;;;;13.97;3.70;;;9.70;1.00;9.70;102362.00;;;;5020135;28;20469;-77
2022/02/26 10:51:31;;;;;;;12.77;3.90;;;9.60;1.00;9.50;102354.00;;;;5020754;28;20460;-79
2022/02/26 10:54:02;;;;;;;11.33;3.87;;;9.40;1.00;9.50;102358.00;;;;5018573;28;20477;-78
2022/02/26 10:56:37;;;;;;;9.17;3.33;;;9.30;1.00;9.60;102338.00;;;;5021757;28;20945;-82
2022/02/26 10:59:09;;;;;;;9.03;3.23;;;9.40;1.00;9.50;102342.00;;;;5041187;28;20459;-80
2022/02/26 11:01:40;;;;;;;9.90;3.43;;;9.30;1.00;9.40;102331.00;;;;5025425;28;20464;-78
2022/02/26 11:04:10;;;;;;;11.90;4.00;;;9.20;1.00;9.20;102344.00;;;;5014485;28;20472;-78
2022/02/26 11:06:42;;;;;;;11.70;2.83;;;9.00;1.00;9.20;102341.00;;;;5015548;28;20452;-79
2022/02/26 11:09:10;;;;;;;10.20;2.63;;;9.00;1.00;9.20;102327.00;;;;5017616;28;20569;-80
2022/02/26 11:11:42;;;;;;;10.00;3.43;;;8.90;1.00;8.90;102329.00;;;;5017665;28;20974;-78
2022/02/26 11:14:11;;;;;;;8.37;2.17;;;8.80;1.00;9.00;102329.00;;;;5017507;28;20570;-79